createdAt,value
2023-02-03T00:04:48.593Z,9.18
2023-02-03T00:09:50.211Z,9.80
2023-02-03T00:14:51.668Z,9.25
2023-02-03T00:19:53.169Z,7.75
2023-02-03T00:24:54.638Z,6.45
2023-02-03T00:29:56.230Z,8.65
2023-02-03T00:34:57.725Z,5.88
2023-02-03T00:39:59.189Z,7.30
2023-02-03T00:45:00.673Z,4.78
2023-02-03T00:50:02.156Z,5.30
2023-02-03T00:55:04.452Z,5.30
2023-02-03T01:00:06.911Z,6.38
2023-02-03T01:05:08.542Z,4.63
2023-02-03T01:10:10.737Z,5.28
2023-02-03T01:15:12.204Z,4.32
2023-02-03T01:20:13.979Z,5.03
2023-02-03T01:25:15.644Z,4.85
2023-02-03T01:30:17.352Z,3.83
2023-02-03T01:35:18.814Z,5.15
2023-02-03T01:40:20.402Z,5.63
2023-02-03T01:45:21.925Z,4.57
2023-02-03T01:50:35.868Z,5.28
2023-02-03T01:55:48.405Z,4.72
2023-02-03T02:00:50.043Z,4.55
2023-02-03T02:06:02.653Z,4.25
2023-02-03T02:11:05.339Z,4.47
2023-02-03T02:16:22.795Z,4.28
2023-02-03T02:21:36.444Z,5.13
2023-02-03T02:26:59.311Z,4.30
2023-02-03T02:32:15.617Z,5.22
2023-02-03T02:37:30.925Z,4.07
2023-02-03T02:42:36.589Z,3.85
2023-02-03T02:47:38.765Z,4.15
2023-02-03T02:52:43.350Z,3.75
2023-02-03T03:02:48.540Z,5.03
2023-02-03T03:07:59.591Z,4.85
2023-02-03T03:13:06.249Z,4.88
2023-02-03T03:18:25.173Z,4.38
2023-02-03T03:23:31.886Z,4.35
2023-02-03T03:28:42.226Z,3.47
2023-02-03T03:33:44.293Z,4.55
2023-02-03T03:38:55.403Z,4.13
2023-02-03T03:44:00.803Z,4.82
2023-02-03T03:49:05.198Z,6.07
2023-02-03T03:54:10.632Z,5.22
2023-02-03T03:59:16.132Z,7.97
2023-02-03T04:04:18.614Z,5.57
2023-02-03T04:09:20.318Z,4.88
2023-02-03T04:14:21.769Z,5.57
2023-02-03T04:19:23.233Z,5.72
2023-02-03T04:24:24.726Z,5.13
2023-02-03T04:29:26.131Z,5.70
2023-02-03T04:34:27.535Z,6.38
2023-02-03T04:39:28.980Z,4.95
2023-02-03T04:44:30.438Z,5.97
2023-02-03T04:49:31.884Z,6.05
2023-02-03T04:54:34.098Z,6.25
2023-02-03T04:59:35.546Z,6.10
2023-02-03T05:04:37.009Z,6.32
2023-02-03T05:09:38.423Z,4.82
2023-02-03T05:14:39.860Z,6.65
2023-02-03T05:19:41.331Z,6.45
2023-02-03T05:24:42.786Z,6.07
2023-02-03T05:29:44.200Z,4.78
2023-02-03T05:34:45.678Z,5.15
2023-02-03T05:39:47.110Z,5.63
2023-02-03T05:44:49.525Z,5.32
2023-02-03T05:49:51.027Z,6.35
2023-02-03T05:54:52.527Z,7.40
2023-02-03T05:59:53.986Z,6.97
2023-02-03T06:04:55.443Z,5.47
2023-02-03T06:09:57.005Z,5.35
2023-02-03T06:14:58.465Z,5.88
2023-02-03T06:19:59.944Z,4.13
2023-02-03T06:25:01.454Z,5.80
2023-02-03T06:30:03.455Z,4.28
2023-02-03T06:35:05.256Z,3.75
2023-02-03T06:40:07.569Z,4.35
2023-02-03T06:45:09.705Z,3.75
2023-02-03T06:50:14.165Z,2.33
2023-02-03T06:55:15.858Z,3.30
2023-02-03T07:00:19.372Z,1.50
2023-02-03T07:05:21.965Z,5.13
2023-02-03T07:10:23.501Z,5.88
2023-02-03T07:15:24.942Z,7.50
2023-02-03T07:20:29.030Z,7.15
2023-02-03T07:25:31.387Z,8.07
2023-02-03T07:30:32.878Z,6.97
2023-02-03T07:35:34.973Z,6.40
2023-02-03T07:40:36.460Z,7.68
2023-02-03T07:45:37.986Z,6.93
2023-02-03T07:50:40.020Z,8.13
2023-02-03T07:55:41.478Z,8.48
2023-02-03T08:00:43.238Z,8.10
2023-02-03T08:05:44.655Z,8.05
2023-02-03T08:10:46.070Z,7.38
2023-02-03T08:15:48.406Z,6.05
2023-02-03T08:20:49.867Z,8.18
2023-02-03T16:49:16.488Z,6.68
2023-02-03T16:54:18.223Z,5.70
2023-02-03T16:59:19.747Z,4.90
2023-02-03T17:04:21.260Z,6.28
2023-02-03T17:09:24.983Z,5.68
2023-02-03T17:14:27.092Z,5.07
2023-02-03T17:19:28.606Z,4.05
2023-02-03T17:24:30.078Z,4.75
2023-02-03T17:29:31.750Z,4.50
2023-02-03T17:34:34.800Z,5.38
2023-02-03T17:55:37.593Z,4.70
2023-02-03T18:00:39.006Z,2.80
2023-02-03T18:05:49.838Z,3.85
2023-02-03T18:10:51.280Z,3.50
2023-02-03T18:15:56.086Z,3.53
2023-02-03T18:20:57.573Z,4.68
2023-02-03T18:25:59.586Z,4.90
2023-02-03T18:31:05.424Z,20.55
2023-02-03T18:36:07.727Z,19.35
2023-02-03T18:41:14.312Z,18.20
2023-02-03T18:46:24.070Z,2.80
2023-02-03T18:51:26.582Z,2.08
2023-02-03T18:56:35.101Z,2.25
2023-02-03T19:01:38.910Z,3.50
2023-02-03T19:06:45.522Z,2.60
2023-02-03T19:11:47.075Z,2.75
2023-02-03T19:16:50.437Z,2.75
2023-02-03T19:21:52.207Z,3.90
2023-02-03T19:26:54.218Z,1.02
2023-02-03T19:31:55.781Z,2.67
2023-02-03T19:36:59.125Z,1.60
2023-02-03T19:42:01.470Z,1.13
2023-02-03T19:47:03.714Z,1.57
2023-02-03T19:52:05.422Z,4.03
2023-02-03T19:57:06.931Z,2.37
2023-02-03T20:02:14.581Z,1.90
2023-02-03T20:07:16.758Z,2.53
2023-02-03T20:12:18.223Z,2.20
2023-02-03T20:17:19.718Z,1.65
2023-02-03T20:22:21.486Z,1.10
2023-02-03T20:27:23.017Z,8.33
2023-02-03T20:32:24.590Z,1.53
2023-02-03T20:37:26.105Z,1.00
2023-02-03T20:42:27.602Z,1.30
2023-02-03T20:47:33.915Z,1.50
2023-02-03T20:52:35.391Z,2.10
2023-02-03T20:57:36.929Z,1.57
2023-02-03T21:02:57.392Z,1.53
2023-02-03T21:07:59.323Z,1.10
2023-02-03T21:13:01.547Z,1.43
2023-02-03T21:18:03.207Z,1.50
2023-02-03T21:23:11.290Z,1.60
2023-02-03T21:28:26.778Z,1.67
2023-02-03T21:33:36.768Z,1.30
2023-02-03T21:38:38.246Z,1.10
2023-02-03T21:43:39.736Z,1.20
2023-02-03T21:48:55.011Z,1.57
2023-02-03T21:53:59.208Z,2.03
2023-02-03T21:59:01.732Z,2.37
2023-02-03T22:04:04.052Z,3.67
2023-02-03T22:09:05.510Z,2.00
2023-02-03T22:14:07.031Z,3.53
2023-02-03T22:19:08.871Z,1.60
2023-02-03T22:24:10.460Z,1.03
2023-02-03T22:29:11.959Z,1.67
2023-02-03T22:34:15.396Z,1.47
2023-02-03T22:39:16.851Z,1.20
2023-02-03T22:44:18.863Z,1.17
2023-02-03T22:49:20.323Z,2.00
2023-02-03T22:54:21.807Z,1.97
2023-02-03T22:59:23.392Z,1.60
2023-02-03T23:04:24.892Z,1.50
2023-02-03T23:09:26.383Z,1.60
2023-02-03T23:14:28.203Z,1.30
2023-02-03T23:19:30.128Z,1.50
2023-02-03T23:24:31.634Z,1.70
2023-02-03T23:29:33.255Z,2.00
2023-02-03T23:34:53.199Z,1.60
2023-02-03T23:39:54.706Z,1.60
2023-02-03T23:44:57.044Z,1.40
2023-02-03T23:49:58.490Z,1.43
2023-02-03T23:54:59.947Z,1.50
